sensor_id;sensor_type;location;lat;lon;timestamp;temperature;humidity
8103;DHT22;4094;49.948;11.574;2023-01-10T00:02:20;9.30;73.70
8103;DHT22;4094;49.948;11.574;2023-01-10T00:04:50;9.30;73.60
8103;DHT22;4094;49.948;11.574;2023-01-10T00:07:19;9.30;73.40
8103;DHT22;4094;49.948;11.574;2023-01-10T00:09:48;9.30;73.40
8103;DHT22;4094;49.948;11.574;2023-01-10T00:12:17;9.30;73.30
8103;DHT22;4094;49.948;11.574;2023-01-10T00:15:06;9.30;73.40
8103;DHT22;4094;49.948;11.574;2023-01-10T00:17:35;9.30;73.40
8103;DHT22;4094;49.948;11.574;2023-01-10T00:20:05;9.30;73.20
8103;DHT22;4094;49.948;11.574;2023-01-10T00:22:34;9.30;73.30
8103;DHT22;4094;49.948;11.574;2023-01-10T00:25:04;9.30;73.30
8103;DHT22;4094;49.948;11.574;2023-01-10T00:27:33;9.30;73.40
8103;DHT22;4094;49.948;11.574;2023-01-10T00:30:06;9.40;73.60
8103;DHT22;4094;49.948;11.574;2023-01-10T00:32:41;9.40;73.50
8103;DHT22;4094;49.948;11.574;2023-01-10T00:35:11;9.30;73.30
8103;DHT22;4094;49.948;11.574;2023-01-10T00:37:41;9.40;73.60
8103;DHT22;4094;49.948;11.574;2023-01-10T00:40:11;9.40;73.60
8103;DHT22;4094;49.948;11.574;2023-01-10T00:42:40;9.30;73.30
8103;DHT22;4094;49.948;11.574;2023-01-10T00:45:25;9.30;73.10
8103;DHT22;4094;49.948;11.574;2023-01-10T00:47:54;9.30;73.10
8103;DHT22;4094;49.948;11.574;2023-01-10T00:50:23;9.30;74.00
8103;DHT22;4094;49.948;11.574;2023-01-10T00:52:52;9.40;73.20
8103;DHT22;4094;49.948;11.574;2023-01-10T00:55:21;9.40;72.90
8103;DHT22;4094;49.948;11.574;2023-01-10T00:57:51;9.40;72.70
8103;DHT22;4094;49.948;11.574;2023-01-10T01:00:20;9.40;72.60
8103;DHT22;4094;49.948;11.574;2023-01-10T01:02:50;9.40;72.60
8103;DHT22;4094;49.948;11.574;2023-01-10T01:05:20;9.40;72.30
8103;DHT22;4094;49.948;11.574;2023-01-10T01:07:49;9.40;72.10
8103;DHT22;4094;49.948;11.574;2023-01-10T01:10:19;9.40;72.00
8103;DHT22;4094;49.948;11.574;2023-01-10T01:12:55;9.40;72.10
8103;DHT22;4094;49.948;11.574;2023-01-10T01:15:25;9.40;72.30
8103;DHT22;4094;49.948;11.574;2023-01-10T01:17:56;9.40;71.90
8103;DHT22;4094;49.948;11.574;2023-01-10T01:20:25;9.40;71.90
8103;DHT22;4094;49.948;11.574;2023-01-10T01:22:55;9.40;72.40
8103;DHT22;4094;49.948;11.574;2023-01-10T01:25:24;9.40;72.40
8103;DHT22;4094;49.948;11.574;2023-01-10T01:27:53;9.40;72.20
8103;DHT22;4094;49.948;11.574;2023-01-10T01:30:22;9.40;72.10
8103;DHT22;4094;49.948;11.574;2023-01-10T01:32:52;9.40;72.20
8103;DHT22;4094;49.948;11.574;2023-01-10T01:35:22;9.40;72.10
8103;DHT22;4094;49.948;11.574;2023-01-10T01:37:52;9.40;71.80
8103;DHT22;4094;49.948;11.574;2023-01-10T01:40:22;9.40;71.80
8103;DHT22;4094;49.948;11.574;2023-01-10T01:42:51;9.40;71.80
8103;DHT22;4094;49.948;11.574;2023-01-10T01:45:36;9.40;71.60
8103;DHT22;4094;49.948;11.574;2023-01-10T01:48:11;9.40;71.30
8103;DHT22;4094;49.948;11.574;2023-01-10T01:50:47;9.40;71.60
8103;DHT22;4094;49.948;11.574;2023-01-10T01:53:22;9.40;71.30
8103;DHT22;4094;49.948;11.574;2023-01-10T01:55:54;9.40;71.10
8103;DHT22;4094;49.948;11.574;2023-01-10T01:58:30;9.40;71.30
8103;DHT22;4094;49.948;11.574;2023-01-10T02:01:02;9.40;71.20
8103;DHT22;4094;49.948;11.574;2023-01-10T02:03:32;9.40;71.20
8103;DHT22;4094;49.948;11.574;2023-01-10T02:06:03;9.40;71.60
8103;DHT22;4094;49.948;11.574;2023-01-10T02:08:32;9.40;71.50
8103;DHT22;4094;49.948;11.574;2023-01-10T02:11:07;9.40;71.20
8103;DHT22;4094;49.948;11.574;2023-01-10T02:13:39;9.40;71.20
8103;DHT22;4094;49.948;11.574;2023-01-10T02:16:09;9.40;71.00
8103;DHT22;4094;49.948;11.574;2023-01-10T02:18:39;9.40;71.00
8103;DHT22;4094;49.948;11.574;2023-01-10T02:21:27;9.40;71.00
8103;DHT22;4094;49.948;11.574;2023-01-10T02:24:24;9.40;71.00
8103;DHT22;4094;49.948;11.574;2023-01-10T02:27:20;9.40;70.90
8103;DHT22;4094;49.948;11.574;2023-01-10T02:33:12;9.40;71.40
8103;DHT22;4094;49.948;11.574;2023-01-10T02:35:53;9.40;71.20
8103;DHT22;4094;49.948;11.574;2023-01-10T02:38:36;9.40;71.00
8103;DHT22;4094;49.948;11.574;2023-01-10T02:41:12;9.40;71.00
8103;DHT22;4094;49.948;11.574;2023-01-10T02:43:49;9.40;70.90
8103;DHT22;4094;49.948;11.574;2023-01-10T02:46:20;9.40;70.90
8103;DHT22;4094;49.948;11.574;2023-01-10T02:48:54;9.40;70.90
8103;DHT22;4094;49.948;11.574;2023-01-10T02:51:24;9.30;70.70
8103;DHT22;4094;49.948;11.574;2023-01-10T02:53:57;9.30;70.80
8103;DHT22;4094;49.948;11.574;2023-01-10T02:56:49;9.30;70.80
8103;DHT22;4094;49.948;11.574;2023-01-10T02:59:45;9.30;71.00
8103;DHT22;4094;49.948;11.574;2023-01-10T03:02:35;9.40;71.20
8103;DHT22;4094;49.948;11.574;2023-01-10T03:05:11;9.30;71.00
8103;DHT22;4094;49.948;11.574;2023-01-10T03:07:52;9.30;71.30
8103;DHT22;4094;49.948;11.574;2023-01-10T03:10:27;9.30;71.00
8103;DHT22;4094;49.948;11.574;2023-01-10T03:13:00;9.30;71.00
8103;DHT22;4094;49.948;11.574;2023-01-10T03:15:34;9.40;71.10
8103;DHT22;4094;49.948;11.574;2023-01-10T03:18:07;9.30;70.90
8103;DHT22;4094;49.948;11.574;2023-01-10T03:20:41;9.40;70.80
8103;DHT22;4094;49.948;11.574;2023-01-10T03:23:13;9.40;70.70
8103;DHT22;4094;49.948;11.574;2023-01-10T03:25:45;9.40;70.80
8103;DHT22;4094;49.948;11.574;2023-01-10T03:28:19;9.40;70.70
8103;DHT22;4094;49.948;11.574;2023-01-10T03:30:52;9.40;70.90
8103;DHT22;4094;49.948;11.574;2023-01-10T03:33:24;9.40;70.70
8103;DHT22;4094;49.948;11.574;2023-01-10T03:36:05;9.40;70.80
8103;DHT22;4094;49.948;11.574;2023-01-10T03:38:41;9.30;70.80
8103;DHT22;4094;49.948;11.574;2023-01-10T03:41:15;9.30;70.50
8103;DHT22;4094;49.948;11.574;2023-01-10T03:43:47;9.40;70.50
8103;DHT22;4094;49.948;11.574;2023-01-10T03:46:42;9.30;70.40
8103;DHT22;4094;49.948;11.574;2023-01-10T03:49:15;9.40;70.60
8103;DHT22;4094;49.948;11.574;2023-01-10T03:51:46;9.40;70.70
8103;DHT22;4094;49.948;11.574;2023-01-10T03:54:16;9.30;70.50
8103;DHT22;4094;49.948;11.574;2023-01-10T03:56:46;9.40;70.70
8103;DHT22;4094;49.948;11.574;2023-01-10T03:59:17;9.40;70.60
8103;DHT22;4094;49.948;11.574;2023-01-10T04:01:47;9.40;70.60
8103;DHT22;4094;49.948;11.574;2023-01-10T04:04:16;9.30;70.60
8103;DHT22;4094;49.948;11.574;2023-01-10T04:06:47;9.30;70.50
8103;DHT22;4094;49.948;11.574;2023-01-10T04:09:16;9.30;70.40
8103;DHT22;4094;49.948;11.574;2023-01-10T04:11:45;9.40;70.50
8103;DHT22;4094;49.948;11.574;2023-01-10T04:14:14;9.40;70.50
8103;DHT22;4094;49.948;11.574;2023-01-10T04:16:44;9.30;70.50
8103;DHT22;4094;49.948;11.574;2023-01-10T04:19:13;9.40;70.60
8103;DHT22;4094;49.948;11.574;2023-01-10T04:21:42;9.30;70.50
8103;DHT22;4094;49.948;11.574;2023-01-10T04:24:13;9.30;70.70
8103;DHT22;4094;49.948;11.574;2023-01-10T04:26:42;9.30;70.70
8103;DHT22;4094;49.948;11.574;2023-01-10T04:29:11;9.30;70.90
8103;DHT22;4094;49.948;11.574;2023-01-10T04:31:40;9.30;71.00
8103;DHT22;4094;49.948;11.574;2023-01-10T04:34:09;9.30;71.00
8103;DHT22;4094;49.948;11.574;2023-01-10T04:36:38;9.30;71.20
8103;DHT22;4094;49.948;11.574;2023-01-10T04:39:07;9.30;71.20
8103;DHT22;4094;49.948;11.574;2023-01-10T04:41:38;9.30;71.20
8103;DHT22;4094;49.948;11.574;2023-01-10T04:44:08;9.30;71.50
8103;DHT22;4094;49.948;11.574;2023-01-10T04:46:37;9.30;71.40
8103;DHT22;4094;49.948;11.574;2023-01-10T04:49:06;9.30;71.20
8103;DHT22;4094;49.948;11.574;2023-01-10T04:51:35;9.30;71.30
8103;DHT22;4094;49.948;11.574;2023-01-10T04:54:05;9.30;71.20
8103;DHT22;4094;49.948;11.574;2023-01-10T04:56:34;9.30;71.20
8103;DHT22;4094;49.948;11.574;2023-01-10T04:59:04;9.30;71.20
8103;DHT22;4094;49.948;11.574;2023-01-10T05:01:34;9.30;71.30
8103;DHT22;4094;49.948;11.574;2023-01-10T05:04:06;9.30;71.20
8103;DHT22;4094;49.948;11.574;2023-01-10T05:06:35;9.30;71.20
8103;DHT22;4094;49.948;11.574;2023-01-10T05:09:08;9.30;71.20
8103;DHT22;4094;49.948;11.574;2023-01-10T05:11:37;9.30;71.20
8103;DHT22;4094;49.948;11.574;2023-01-10T05:14:08;9.30;71.10
8103;DHT22;4094;49.948;11.574;2023-01-10T05:16:37;9.30;71.30
8103;DHT22;4094;49.948;11.574;2023-01-10T05:19:06;9.30;70.90
8103;DHT22;4094;49.948;11.574;2023-01-10T05:21:36;9.30;70.90
8103;DHT22;4094;49.948;11.574;2023-01-10T05:24:06;9.30;70.90
8103;DHT22;4094;49.948;11.574;2023-01-10T05:26:35;9.30;71.20
8103;DHT22;4094;49.948;11.574;2023-01-10T05:29:04;9.30;71.00
8103;DHT22;4094;49.948;11.574;2023-01-10T05:31:34;9.30;71.00
8103;DHT22;4094;49.948;11.574;2023-01-10T05:34:03;9.30;71.00
8103;DHT22;4094;49.948;11.574;2023-01-10T05:36:32;9.30;70.90
8103;DHT22;4094;49.948;11.574;2023-01-10T05:39:02;9.30;70.80
8103;DHT22;4094;49.948;11.574;2023-01-10T05:41:31;9.30;70.60
8103;DHT22;4094;49.948;11.574;2023-01-10T05:44:01;9.30;70.60
8103;DHT22;4094;49.948;11.574;2023-01-10T05:46:30;9.30;70.70
8103;DHT22;4094;49.948;11.574;2023-01-10T05:49:01;9.30;70.90
8103;DHT22;4094;49.948;11.574;2023-01-10T05:51:30;9.30;70.70
8103;DHT22;4094;49.948;11.574;2023-01-10T05:53:59;9.30;70.70
8103;DHT22;4094;49.948;11.574;2023-01-10T05:56:28;9.30;70.60
8103;DHT22;4094;49.948;11.574;2023-01-10T05:58:57;9.30;70.80
8103;DHT22;4094;49.948;11.574;2023-01-10T06:01:38;9.30;70.90
8103;DHT22;4094;49.948;11.574;2023-01-10T06:04:08;9.30;71.30
8103;DHT22;4094;49.948;11.574;2023-01-10T06:06:38;9.30;71.20
8103;DHT22;4094;49.948;11.574;2023-01-10T06:09:07;9.30;70.90
8103;DHT22;4094;49.948;11.574;2023-01-10T06:11:36;9.40;70.60
8103;DHT22;4094;49.948;11.574;2023-01-10T06:14:05;9.30;70.50
8103;DHT22;4094;49.948;11.574;2023-01-10T06:16:34;9.40;71.10
8103;DHT22;4094;49.948;11.574;2023-01-10T06:19:04;9.40;71.10
8103;DHT22;4094;49.948;11.574;2023-01-10T06:21:34;9.40;70.50
8103;DHT22;4094;49.948;11.574;2023-01-10T06:24:04;9.40;70.30
8103;DHT22;4094;49.948;11.574;2023-01-10T06:26:33;9.40;70.90
8103;DHT22;4094;49.948;11.574;2023-01-10T06:29:03;9.40;70.90
8103;DHT22;4094;49.948;11.574;2023-01-10T06:31:32;9.40;71.10
8103;DHT22;4094;49.948;11.574;2023-01-10T06:34:02;9.40;70.70
8103;DHT22;4094;49.948;11.574;2023-01-10T06:36:33;9.40;70.70
8103;DHT22;4094;49.948;11.574;2023-01-10T06:39:03;9.40;70.40
8103;DHT22;4094;49.948;11.574;2023-01-10T06:41:32;9.40;70.10
8103;DHT22;4094;49.948;11.574;2023-01-10T06:44:01;9.40;69.90
8103;DHT22;4094;49.948;11.574;2023-01-10T06:46:30;9.40;69.90
8103;DHT22;4094;49.948;11.574;2023-01-10T06:48:59;9.40;69.90
8103;DHT22;4094;49.948;11.574;2023-01-10T06:51:29;9.30;69.70
8103;DHT22;4094;49.948;11.574;2023-01-10T06:53:59;9.30;69.70
8103;DHT22;4094;49.948;11.574;2023-01-10T06:56:28;9.30;69.70
8103;DHT22;4094;49.948;11.574;2023-01-10T06:58:57;9.30;69.70
8103;DHT22;4094;49.948;11.574;2023-01-10T07:01:27;9.30;69.90
8103;DHT22;4094;49.948;11.574;2023-01-10T07:03:56;9.20;69.80
8103;DHT22;4094;49.948;11.574;2023-01-10T07:06:25;9.20;69.80
8103;DHT22;4094;49.948;11.574;2023-01-10T07:08:55;9.20;69.90
8103;DHT22;4094;49.948;11.574;2023-01-10T07:11:25;9.20;69.90
8103;DHT22;4094;49.948;11.574;2023-01-10T07:13:54;9.20;69.80
8103;DHT22;4094;49.948;11.574;2023-01-10T07:16:24;9.20;70.00
8103;DHT22;4094;49.948;11.574;2023-01-10T07:18:53;9.20;70.00
8103;DHT22;4094;49.948;11.574;2023-01-10T07:21:22;9.20;69.90
8103;DHT22;4094;49.948;11.574;2023-01-10T07:23:51;9.20;69.80
8103;DHT22;4094;49.948;11.574;2023-01-10T07:26:21;9.20;69.70
8103;DHT22;4094;49.948;11.574;2023-01-10T07:28:52;9.20;70.00
8103;DHT22;4094;49.948;11.574;2023-01-10T07:31:21;9.30;70.00
8103;DHT22;4094;49.948;11.574;2023-01-10T07:33:52;9.20;70.00
8103;DHT22;4094;49.948;11.574;2023-01-10T07:36:22;9.20;69.80
8103;DHT22;4094;49.948;11.574;2023-01-10T07:38:51;9.20;69.60
8103;DHT22;4094;49.948;11.574;2023-01-10T07:41:20;9.20;69.40
8103;DHT22;4094;49.948;11.574;2023-01-10T07:43:49;9.30;69.30
8103;DHT22;4094;49.948;11.574;2023-01-10T07:46:20;9.20;69.20
8103;DHT22;4094;49.948;11.574;2023-01-10T07:48:49;9.20;69.10
8103;DHT22;4094;49.948;11.574;2023-01-10T07:51:19;9.20;69.10
8103;DHT22;4094;49.948;11.574;2023-01-10T07:53:48;9.20;69.10
8103;DHT22;4094;49.948;11.574;2023-01-10T07:56:17;9.20;69.70
8103;DHT22;4094;49.948;11.574;2023-01-10T07:58:46;9.30;69.50
8103;DHT22;4094;49.948;11.574;2023-01-10T08:01:16;9.30;69.40
8103;DHT22;4094;49.948;11.574;2023-01-10T08:03:47;9.30;69.40
8103;DHT22;4094;49.948;11.574;2023-01-10T08:06:16;9.30;69.40
8103;DHT22;4094;49.948;11.574;2023-01-10T08:08:45;9.30;69.50
8103;DHT22;4094;49.948;11.574;2023-01-10T08:11:14;9.30;69.50
8103;DHT22;4094;49.948;11.574;2023-01-10T08:13:43;9.30;69.50
8103;DHT22;4094;49.948;11.574;2023-01-10T08:16:13;9.30;69.20
8103;DHT22;4094;49.948;11.574;2023-01-10T08:18:42;9.30;69.30
8103;DHT22;4094;49.948;11.574;2023-01-10T08:21:13;9.30;69.30
8103;DHT22;4094;49.948;11.574;2023-01-10T08:23:42;9.30;69.40
8103;DHT22;4094;49.948;11.574;2023-01-10T08:26:12;9.30;69.50
8103;DHT22;4094;49.948;11.574;2023-01-10T08:28:41;9.30;69.40
8103;DHT22;4094;49.948;11.574;2023-01-10T08:31:11;9.30;69.30
8103;DHT22;4094;49.948;11.574;2023-01-10T08:33:40;9.30;69.30
8103;DHT22;4094;49.948;11.574;2023-01-10T08:36:18;9.30;69.30
8103;DHT22;4094;49.948;11.574;2023-01-10T08:38:49;9.30;69.30
8103;DHT22;4094;49.948;11.574;2023-01-10T08:41:18;9.30;69.20
8103;DHT22;4094;49.948;11.574;2023-01-10T08:43:49;9.30;69.20
8103;DHT22;4094;49.948;11.574;2023-01-10T08:46:18;9.30;69.30
8103;DHT22;4094;49.948;11.574;2023-01-10T08:48:48;9.30;69.30
8103;DHT22;4094;49.948;11.574;2023-01-10T08:51:19;9.30;69.50
8103;DHT22;4094;49.948;11.574;2023-01-10T08:53:49;9.30;69.80
8103;DHT22;4094;49.948;11.574;2023-01-10T08:56:18;9.30;69.60
8103;DHT22;4094;49.948;11.574;2023-01-10T08:58:48;9.30;69.50
8103;DHT22;4094;49.948;11.574;2023-01-10T09:01:17;9.30;69.50
8103;DHT22;4094;49.948;11.574;2023-01-10T09:03:48;9.30;69.40
8103;DHT22;4094;49.948;11.574;2023-01-10T09:06:17;9.40;69.30
8103;DHT22;4094;49.948;11.574;2023-01-10T09:08:48;9.40;69.20
8103;DHT22;4094;49.948;11.574;2023-01-10T09:11:17;9.40;69.40
8103;DHT22;4094;49.948;11.574;2023-01-10T09:13:48;9.40;69.30
8103;DHT22;4094;49.948;11.574;2023-01-10T09:16:17;9.40;69.30
8103;DHT22;4094;49.948;11.574;2023-01-10T09:18:47;9.40;69.10
8103;DHT22;4094;49.948;11.574;2023-01-10T09:21:16;9.40;69.10
8103;DHT22;4094;49.948;11.574;2023-01-10T09:23:45;9.40;69.30
8103;DHT22;4094;49.948;11.574;2023-01-10T09:26:16;9.50;69.80
8103;DHT22;4094;49.948;11.574;2023-01-10T09:28:45;9.50;69.50
8103;DHT22;4094;49.948;11.574;2023-01-10T09:31:16;9.60;69.30
8103;DHT22;4094;49.948;11.574;2023-01-10T09:33:45;9.60;69.00
8103;DHT22;4094;49.948;11.574;2023-01-10T09:36:16;9.70;69.10
8103;DHT22;4094;49.948;11.574;2023-01-10T09:38:45;9.70;68.80
8103;DHT22;4094;49.948;11.574;2023-01-10T09:41:35;9.70;68.60
8103;DHT22;4094;49.948;11.574;2023-01-10T09:44:16;9.70;68.40
8103;DHT22;4094;49.948;11.574;2023-01-10T09:46:53;9.70;68.40
8103;DHT22;4094;49.948;11.574;2023-01-10T09:49:41;9.70;68.50
8103;DHT22;4094;49.948;11.574;2023-01-10T09:52:19;9.70;68.40
8103;DHT22;4094;49.948;11.574;2023-01-10T09:54:51;9.70;68.20
8103;DHT22;4094;49.948;11.574;2023-01-10T09:57:24;9.70;68.20
8103;DHT22;4094;49.948;11.574;2023-01-10T09:59:53;9.70;67.90
8103;DHT22;4094;49.948;11.574;2023-01-10T10:02:25;9.70;68.10
8103;DHT22;4094;49.948;11.574;2023-01-10T10:05:10;9.70;68.10
8103;DHT22;4094;49.948;11.574;2023-01-10T10:07:40;9.70;68.00
8103;DHT22;4094;49.948;11.574;2023-01-10T10:10:14;9.70;68.10
8103;DHT22;4094;49.948;11.574;2023-01-10T10:12:53;9.70;68.10
8103;DHT22;4094;49.948;11.574;2023-01-10T10:15:32;9.70;68.10
8103;DHT22;4094;49.948;11.574;2023-01-10T10:18:12;9.70;68.40
8103;DHT22;4094;49.948;11.574;2023-01-10T10:20:51;9.70;68.40
8103;DHT22;4094;49.948;11.574;2023-01-10T10:23:41;9.70;68.50
8103;DHT22;4094;49.948;11.574;2023-01-10T10:26:17;9.70;68.10
8103;DHT22;4094;49.948;11.574;2023-01-10T10:29:06;9.80;68.00
8103;DHT22;4094;49.948;11.574;2023-01-10T10:31:58;9.70;68.50
8103;DHT22;4094;49.948;11.574;2023-01-10T10:34:33;9.80;67.70
8103;DHT22;4094;49.948;11.574;2023-01-10T10:37:10;9.80;67.90
8103;DHT22;4094;49.948;11.574;2023-01-10T10:39:44;9.80;67.60
8103;DHT22;4094;49.948;11.574;2023-01-10T10:42:17;9.80;67.60
8103;DHT22;4094;49.948;11.574;2023-01-10T10:44:51;9.80;68.00
8103;DHT22;4094;49.948;11.574;2023-01-10T10:47:25;9.90;68.50
8103;DHT22;4094;49.948;11.574;2023-01-10T10:50:01;9.90;68.90
8103;DHT22;4094;49.948;11.574;2023-01-10T10:52:35;10.00;69.70
8103;DHT22;4094;49.948;11.574;2023-01-10T10:55:10;10.00;68.40
8103;DHT22;4094;49.948;11.574;2023-01-10T10:57:41;10.10;68.00
8103;DHT22;4094;49.948;11.574;2023-01-10T11:00:28;10.10;67.80
8103;DHT22;4094;49.948;11.574;2023-01-10T11:03:01;10.10;67.60
8103;DHT22;4094;49.948;11.574;2023-01-10T11:05:35;10.10;67.50
8103;DHT22;4094;49.948;11.574;2023-01-10T11:08:08;10.00;67.10
8103;DHT22;4094;49.948;11.574;2023-01-10T11:10:39;10.00;67.10
8103;DHT22;4094;49.948;11.574;2023-01-10T11:13:16;10.00;67.00
8103;DHT22;4094;49.948;11.574;2023-01-10T11:15:50;10.00;66.90
8103;DHT22;4094;49.948;11.574;2023-01-10T11:18:24;9.90;67.10
8103;DHT22;4094;49.948;11.574;2023-01-10T11:20:56;9.90;67.80
8103;DHT22;4094;49.948;11.574;2023-01-10T11:23:36;9.90;67.40
8103;DHT22;4094;49.948;11.574;2023-01-10T11:26:07;9.80;67.20
8103;DHT22;4094;49.948;11.574;2023-01-10T11:28:37;9.80;67.30
8103;DHT22;4094;49.948;11.574;2023-01-10T11:31:08;9.80;67.10
8103;DHT22;4094;49.948;11.574;2023-01-10T11:33:37;9.80;66.80
8103;DHT22;4094;49.948;11.574;2023-01-10T11:36:09;9.80;66.80
8103;DHT22;4094;49.948;11.574;2023-01-10T11:38:57;9.80;67.10
8103;DHT22;4094;49.948;11.574;2023-01-10T11:41:27;9.80;67.10
8103;DHT22;4094;49.948;11.574;2023-01-10T11:44:16;9.80;67.00
8103;DHT22;4094;49.948;11.574;2023-01-10T11:46:48;9.80;67.20
8103;DHT22;4094;49.948;11.574;2023-01-10T11:49:27;9.80;67.20
8103;DHT22;4094;49.948;11.574;2023-01-10T11:51:59;9.80;67.10
8103;DHT22;4094;49.948;11.574;2023-01-10T11:54:31;9.80;67.40
8103;DHT22;4094;49.948;11.574;2023-01-10T11:57:05;9.80;67.50
8103;DHT22;4094;49.948;11.574;2023-01-10T11:59:35;9.80;67.50
8103;DHT22;4094;49.948;11.574;2023-01-10T12:02:19;9.80;67.50
8103;DHT22;4094;49.948;11.574;2023-01-10T12:04:52;9.80;67.70
8103;DHT22;4094;49.948;11.574;2023-01-10T12:07:22;9.80;67.60
8103;DHT22;4094;49.948;11.574;2023-01-10T12:09:57;9.80;67.70
8103;DHT22;4094;49.948;11.574;2023-01-10T12:12:29;9.80;67.70
8103;DHT22;4094;49.948;11.574;2023-01-10T12:17:49;9.90;68.00
8103;DHT22;4094;49.948;11.574;2023-01-10T12:20:21;9.90;67.90
8103;DHT22;4094;49.948;11.574;2023-01-10T12:22:54;9.90;67.70
8103;DHT22;4094;49.948;11.574;2023-01-10T12:25:31;9.90;67.90
8103;DHT22;4094;49.948;11.574;2023-01-10T12:28:02;9.90;67.70
8103;DHT22;4094;49.948;11.574;2023-01-10T12:30:34;9.90;67.50
8103;DHT22;4094;49.948;11.574;2023-01-10T12:33:11;9.90;67.70
8103;DHT22;4094;49.948;11.574;2023-01-10T12:35:46;9.80;67.60
8103;DHT22;4094;49.948;11.574;2023-01-10T12:38:22;9.80;67.60
8103;DHT22;4094;49.948;11.574;2023-01-10T12:41:10;9.80;67.80
8103;DHT22;4094;49.948;11.574;2023-01-10T12:44:05;9.80;67.90
8103;DHT22;4094;49.948;11.574;2023-01-10T12:46:43;9.80;67.70
8103;DHT22;4094;49.948;11.574;2023-01-10T12:49:36;9.80;67.90
8103;DHT22;4094;49.948;11.574;2023-01-10T12:52:13;9.80;67.90
8103;DHT22;4094;49.948;11.574;2023-01-10T12:54:45;9.80;67.90
8103;DHT22;4094;49.948;11.574;2023-01-10T12:57:23;9.80;67.70
8103;DHT22;4094;49.948;11.574;2023-01-10T12:59:54;9.80;67.30
8103;DHT22;4094;49.948;11.574;2023-01-10T13:02:28;9.80;67.20
8103;DHT22;4094;49.948;11.574;2023-01-10T13:05:02;9.80;67.50
8103;DHT22;4094;49.948;11.574;2023-01-10T13:07:33;9.80;67.60
8103;DHT22;4094;49.948;11.574;2023-01-10T13:10:05;9.80;67.60
8103;DHT22;4094;49.948;11.574;2023-01-10T13:12:39;9.90;67.30
8103;DHT22;4094;49.948;11.574;2023-01-10T13:15:18;9.90;66.90
8103;DHT22;4094;49.948;11.574;2023-01-10T13:17:53;9.90;66.90
8103;DHT22;4094;49.948;11.574;2023-01-10T13:20:38;9.80;66.80
8103;DHT22;4094;49.948;11.574;2023-01-10T13:23:21;9.80;67.40
8103;DHT22;4094;49.948;11.574;2023-01-10T13:25:56;9.70;67.10
8103;DHT22;4094;49.948;11.574;2023-01-10T13:28:27;9.70;67.10
8103;DHT22;4094;49.948;11.574;2023-01-10T13:30:58;9.60;67.00
8103;DHT22;4094;49.948;11.574;2023-01-10T13:33:29;9.50;67.50
8103;DHT22;4094;49.948;11.574;2023-01-10T13:36:09;9.50;67.80
8103;DHT22;4094;49.948;11.574;2023-01-10T13:38:48;9.50;68.10
8103;DHT22;4094;49.948;11.574;2023-01-10T13:41:18;9.50;68.10
8103;DHT22;4094;49.948;11.574;2023-01-10T13:44:07;9.40;68.30
8103;DHT22;4094;49.948;11.574;2023-01-10T13:46:45;9.30;68.40
8103;DHT22;4094;49.948;11.574;2023-01-10T13:49:46;9.30;68.60
8103;DHT22;4094;49.948;11.574;2023-01-10T13:52:32;9.30;69.20
8103;DHT22;4094;49.948;11.574;2023-01-10T13:58:39;9.30;69.30
8103;DHT22;4094;49.948;11.574;2023-01-10T14:01:29;9.30;69.70
8103;DHT22;4094;49.948;11.574;2023-01-10T14:04:20;9.30;69.50
8103;DHT22;4094;49.948;11.574;2023-01-10T14:06:52;9.30;69.20
8103;DHT22;4094;49.948;11.574;2023-01-10T14:09:45;9.20;69.00
8103;DHT22;4094;49.948;11.574;2023-01-10T14:12:32;9.20;69.40
8103;DHT22;4094;49.948;11.574;2023-01-10T14:15:07;9.20;69.40
8103;DHT22;4094;49.948;11.574;2023-01-10T14:17:55;9.20;69.50
8103;DHT22;4094;49.948;11.574;2023-01-10T14:20:25;9.20;69.70
8103;DHT22;4094;49.948;11.574;2023-01-10T14:23:17;9.20;69.70
8103;DHT22;4094;49.948;11.574;2023-01-10T14:25:53;9.30;69.90
8103;DHT22;4094;49.948;11.574;2023-01-10T14:28:26;9.30;69.90
8103;DHT22;4094;49.948;11.574;2023-01-10T14:31:04;9.30;69.80
8103;DHT22;4094;49.948;11.574;2023-01-10T14:33:35;9.30;69.90
8103;DHT22;4094;49.948;11.574;2023-01-10T14:36:08;9.30;69.90
8103;DHT22;4094;49.948;11.574;2023-01-10T14:38:38;9.30;70.50
8103;DHT22;4094;49.948;11.574;2023-01-10T14:41:15;9.30;70.20
8103;DHT22;4094;49.948;11.574;2023-01-10T14:43:53;9.40;70.20
8103;DHT22;4094;49.948;11.574;2023-01-10T14:46:27;9.30;70.40
8103;DHT22;4094;49.948;11.574;2023-01-10T14:48:58;9.40;70.40
8103;DHT22;4094;49.948;11.574;2023-01-10T14:51:29;9.30;70.20
8103;DHT22;4094;49.948;11.574;2023-01-10T14:54:00;9.40;70.10
8103;DHT22;4094;49.948;11.574;2023-01-10T14:56:37;9.40;70.20
8103;DHT22;4094;49.948;11.574;2023-01-10T14:59:21;9.40;69.70
8103;DHT22;4094;49.948;11.574;2023-01-10T15:01:53;9.40;69.80
8103;DHT22;4094;49.948;11.574;2023-01-10T15:04:26;9.40;69.90
8103;DHT22;4094;49.948;11.574;2023-01-10T15:06:59;9.40;69.50
8103;DHT22;4094;49.948;11.574;2023-01-10T15:09:30;9.40;69.30
8103;DHT22;4094;49.948;11.574;2023-01-10T15:12:03;9.40;69.10
8103;DHT22;4094;49.948;11.574;2023-01-10T15:14:34;9.30;68.90
8103;DHT22;4094;49.948;11.574;2023-01-10T15:17:05;9.30;68.80
8103;DHT22;4094;49.948;11.574;2023-01-10T15:19:37;9.30;68.40
8103;DHT22;4094;49.948;11.574;2023-01-10T15:22:28;9.30;68.80
8103;DHT22;4094;49.948;11.574;2023-01-10T15:25:00;9.30;68.90
8103;DHT22;4094;49.948;11.574;2023-01-10T15:27:32;9.30;68.80
8103;DHT22;4094;49.948;11.574;2023-01-10T15:30:08;9.30;68.60
8103;DHT22;4094;49.948;11.574;2023-01-10T15:32:38;9.30;68.60
8103;DHT22;4094;49.948;11.574;2023-01-10T15:35:10;9.30;68.60
8103;DHT22;4094;49.948;11.574;2023-01-10T15:37:50;9.30;68.40
8103;DHT22;4094;49.948;11.574;2023-01-10T15:40:21;9.20;68.00
8103;DHT22;4094;49.948;11.574;2023-01-10T15:43:09;9.20;68.00
8103;DHT22;4094;49.948;11.574;2023-01-10T15:45:38;9.20;68.10
8103;DHT22;4094;49.948;11.574;2023-01-10T15:48:25;9.20;68.30
8103;DHT22;4094;49.948;11.574;2023-01-10T15:50:57;9.20;68.20
8103;DHT22;4094;49.948;11.574;2023-01-10T15:53:56;9.20;68.30
8103;DHT22;4094;49.948;11.574;2023-01-10T15:56:32;9.20;67.80
8103;DHT22;4094;49.948;11.574;2023-01-10T15:59:19;9.20;67.70
8103;DHT22;4094;49.948;11.574;2023-01-10T16:01:53;9.20;67.60
8103;DHT22;4094;49.948;11.574;2023-01-10T16:04:24;9.10;67.40
8103;DHT22;4094;49.948;11.574;2023-01-10T16:07:03;9.10;67.50
8103;DHT22;4094;49.948;11.574;2023-01-10T16:09:33;9.10;67.80
8103;DHT22;4094;49.948;11.574;2023-01-10T16:12:03;9.10;67.90
8103;DHT22;4094;49.948;11.574;2023-01-10T16:14:51;9.10;67.90
8103;DHT22;4094;49.948;11.574;2023-01-10T16:17:20;9.10;68.00
8103;DHT22;4094;49.948;11.574;2023-01-10T16:19:49;9.00;68.20
8103;DHT22;4094;49.948;11.574;2023-01-10T16:22:18;9.00;68.20
8103;DHT22;4094;49.948;11.574;2023-01-10T16:24:47;9.10;68.20
8103;DHT22;4094;49.948;11.574;2023-01-10T16:27:19;9.00;67.60
8103;DHT22;4094;49.948;11.574;2023-01-10T16:29:48;9.10;67.80
8103;DHT22;4094;49.948;11.574;2023-01-10T16:32:20;9.00;68.10
8103;DHT22;4094;49.948;11.574;2023-01-10T16:34:49;9.00;68.50
8103;DHT22;4094;49.948;11.574;2023-01-10T16:37:18;9.00;68.80
8103;DHT22;4094;49.948;11.574;2023-01-10T16:39:47;9.00;69.00
8103;DHT22;4094;49.948;11.574;2023-01-10T16:42:16;9.00;69.00
8103;DHT22;4094;49.948;11.574;2023-01-10T16:45:03;8.90;68.60
8103;DHT22;4094;49.948;11.574;2023-01-10T16:47:34;8.90;68.50
8103;DHT22;4094;49.948;11.574;2023-01-10T16:50:04;8.90;68.50
8103;DHT22;4094;49.948;11.574;2023-01-10T16:52:34;8.90;68.70